Time;durP1;ratioP1;P1;durP2;ratioP2;P2;SDS_P1;SDS_P2;PMS_P1;PMS_P2;Temp;Humidity;BMP_temperature;BMP_pressure;BME280_temperature;BME280_humidity;BME280_pressure;Samples;Min_cycle;Max_cycle;Signal;HPM_P1;HPM_P2
2021/12/28 00:02:19;;;;;;;3.03;2.50;;;;;;;0.46;87.46;95042.62;1735971;83;21065;-61
2021/12/28 00:04:45;;;;;;;5.23;2.60;;;;;;;0.45;87.39;95039.13;1735946;82;21061;-62
2021/12/28 00:07:12;;;;;;;2.83;2.30;;;;;;;0.38;87.20;95039.94;1735883;83;20998;-61
2021/12/28 00:09:38;;;;;;;3.33;2.27;;;;;;;0.40;87.50;95041.70;1735846;81;20982;-61
2021/12/28 00:12:06;;;;;;;2.63;2.30;;;;;;;0.42;87.50;95049.48;1736346;83;20978;-61
2021/12/28 00:14:37;;;;;;;4.23;2.07;;;;;;;0.45;87.64;95048.21;1735988;83;21022;-61
2021/12/28 00:19:48;;;;;;;3.87;2.33;;;;;;;0.42;87.32;95052.94;1735541;82;21011;-61
2021/12/28 00:22:14;;;;;;;2.60;2.20;;;;;;;0.35;87.27;95057.64;1736136;83;21487;-61
2021/12/28 00:24:42;;;;;;;2.90;2.27;;;;;;;0.35;87.48;95063.23;1736079;83;20974;-61
2021/12/28 00:27:09;;;;;;;3.97;2.37;;;;;;;0.24;87.26;95054.03;1736048;82;21054;-61
2021/12/28 00:29:36;;;;;;;3.30;2.53;;;;;;;0.15;87.35;95061.29;1736060;83;21515;-61
2021/12/28 00:32:03;;;;;;;4.77;2.43;;;;;;;0.10;87.53;95059.47;1736229;83;21013;-61
2021/12/28 00:34:31;;;;;;;6.00;2.93;;;;;;;0.05;87.60;95062.02;1735734;82;21053;-61
2021/12/28 00:36:58;;;;;;;4.33;3.20;;;;;;;-0.01;87.63;95071.00;1718264;82;21021;-61
2021/12/28 00:39:24;;;;;;;4.33;2.90;;;;;;;-0.08;87.66;95066.58;1744923;82;21064;-61
2021/12/28 00:41:51;;;;;;;3.47;2.60;;;;;;;-0.13;87.86;95069.53;1745098;82;21518;-62
2021/12/28 00:44:18;;;;;;;5.43;2.97;;;;;;;-0.14;88.01;95075.16;1745326;82;21053;-61
2021/12/28 00:46:45;;;;;;;4.37;3.03;;;;;;;-0.14;88.01;95071.27;1745127;82;21514;-61
2021/12/28 00:49:11;;;;;;;4.70;3.30;;;;;;;-0.15;87.94;95066.05;1744783;82;21104;-61
2021/12/28 00:51:38;;;;;;;4.67;3.13;;;;;;;-0.19;87.90;95069.46;1744744;82;21025;-61
2021/12/28 00:54:04;;;;;;;4.90;3.33;;;;;;;-0.20;88.09;95071.59;1745156;82;20997;-61
2021/12/28 00:56:31;;;;;;;5.80;3.20;;;;;;;-0.18;88.01;95071.19;1745117;82;21526;-61
2021/12/28 00:58:57;;;;;;;3.90;2.77;;;;;;;-0.22;87.94;95069.00;1744861;82;20994;-61
2021/12/28 01:01:24;;;;;;;5.47;3.57;;;;;;;-0.21;87.95;95070.72;1744970;82;20982;-61
2021/12/28 01:03:51;;;;;;;5.47;3.47;;;;;;;-0.23;87.89;95065.94;1745286;82;21041;-61
2021/12/28 01:06:17;;;;;;;5.37;3.33;;;;;;;-0.21;87.94;95069.43;1745199;82;21050;-61
2021/12/28 01:08:44;;;;;;;3.60;3.20;;;;;;;-0.26;87.78;95072.38;1745139;82;21017;-61
2021/12/28 01:11:11;;;;;;;3.13;2.83;;;;;;;-0.27;87.70;95071.95;1745483;82;21017;-61
2021/12/28 01:13:37;;;;;;;3.23;2.80;;;;;;;-0.26;87.73;95064.17;1745103;82;21519;-61
2021/12/28 01:16:05;;;;;;;4.40;3.27;;;;;;;-0.28;87.65;95064.61;1745021;82;21021;-61
2021/12/28 01:18:32;;;;;;;3.60;3.30;;;;;;;-0.24;87.69;95061.62;1745094;82;21065;-61
2021/12/28 01:20:58;;;;;;;2.80;2.43;;;;;;;-0.28;87.50;95059.81;1744733;82;21562;-61
2021/12/28 01:23:26;;;;;;;3.80;2.70;;;;;;;-0.28;87.49;95064.61;1745175;82;21570;-62
2021/12/28 01:25:52;;;;;;;3.13;2.70;;;;;;;-0.30;87.55;95065.00;1745230;82;20961;-61
2021/12/28 01:28:19;;;;;;;3.67;3.03;;;;;;;-0.32;87.53;95065.39;1745169;82;21518;-61
2021/12/28 01:30:46;;;;;;;6.53;3.93;;;;;;;-0.32;87.60;95067.13;1745084;82;21044;-61
2021/12/28 01:33:13;;;;;;;5.33;3.60;;;;;;;-0.32;87.61;95067.13;1745098;82;21014;-61
2021/12/28 01:35:39;;;;;;;5.40;4.00;;;;;;;-0.35;87.48;95070.55;1743354;82;21049;-61
2021/12/28 01:38:07;;;;;;;4.50;3.43;;;;;;;-0.37;87.63;95068.34;1742058;82;21104;-61
2021/12/28 01:40:39;;;;;;;4.77;3.30;;;;;;;-0.42;87.31;95068.70;1742305;82;21025;-61
2021/12/28 01:43:13;;;;;;;4.60;3.60;;;;;;;-0.45;87.42;95073.84;1742227;82;21084;-61
2021/12/28 01:45:53;;;;;;;4.93;3.50;;;;;;;-0.42;87.73;95067.84;1742205;82;20973;-61
2021/12/28 01:48:31;;;;;;;4.60;3.27;;;;;;;-0.43;87.77;95077.31;1742258;82;21042;-61
2021/12/28 01:51:03;;;;;;;4.40;3.27;;;;;;;-0.40;87.93;95075.19;1742155;82;21029;-62
2021/12/28 01:53:30;;;;;;;4.03;3.17;;;;;;;-0.45;87.39;95076.02;1742194;82;21001;-62
2021/12/28 01:56:02;;;;;;;4.00;3.00;;;;;;;-0.48;87.40;95075.07;1742212;82;21008;-61
2021/12/28 01:58:28;;;;;;;3.97;3.40;;;;;;;-0.50;87.19;95072.91;1742143;82;21519;-61
2021/12/28 02:00:56;;;;;;;3.43;2.93;;;;;;;-0.50;87.36;95066.00;1742387;82;21021;-61
2021/12/28 02:03:25;;;;;;;3.40;3.10;;;;;;;-0.43;87.54;95061.76;1742031;82;21093;-61
2021/12/28 02:05:53;;;;;;;4.27;3.30;;;;;;;-0.48;87.07;95060.42;1742012;82;21045;-61
2021/12/28 02:08:20;;;;;;;3.87;3.30;;;;;;;-0.48;87.35;95063.41;1742134;82;21555;-61
2021/12/28 02:10:50;;;;;;;3.87;3.00;;;;;;;-0.45;87.74;95064.34;1742199;82;20973;-62
2021/12/28 02:13:18;;;;;;;4.70;3.43;;;;;;;-0.44;87.51;95056.14;1742388;82;21030;-62
2021/12/28 02:15:46;;;;;;;3.63;3.03;;;;;;;-0.40;87.69;95063.52;1742171;82;21004;-61
2021/12/28 02:18:15;;;;;;;3.77;3.10;;;;;;;-0.41;87.56;95069.56;1742392;82;21053;-61
2021/12/28 02:20:44;;;;;;;3.90;3.20;;;;;;;-0.53;87.07;95068.55;1741935;82;20977;-61
2021/12/28 02:23:11;;;;;;;4.10;3.17;;;;;;;-0.62;87.12;95063.22;1742140;82;21060;-61
2021/12/28 02:25:39;;;;;;;3.83;3.10;;;;;;;-0.66;87.12;95067.89;1742427;82;21005;-62
2021/12/28 02:28:08;;;;;;;3.80;3.23;;;;;;;-0.71;87.01;95070.83;1742263;82;21032;-61
2021/12/28 02:30:38;;;;;;;3.43;2.93;;;;;;;-0.73;87.48;95068.23;1742382;82;20989;-61
2021/12/28 02:33:05;;;;;;;3.93;3.17;;;;;;;-0.70;87.34;95070.87;1742219;82;20990;-61
2021/12/28 02:35:33;;;;;;;4.37;3.37;;;;;;;-0.71;87.39;95076.87;1742137;82;21013;-62
2021/12/28 02:38:00;;;;;;;4.20;3.60;;;;;;;-0.67;87.64;95078.69;1742443;82;21534;-61
2021/12/28 02:40:30;;;;;;;5.90;3.60;;;;;;;-0.60;87.93;95071.02;1742218;82;21048;-61
2021/12/28 02:43:00;;;;;;;4.83;4.00;;;;;;;-0.64;87.45;95057.13;1742425;82;21017;-61
2021/12/28 02:45:35;;;;;;;6.03;4.17;;;;;;;-0.61;87.86;95059.77;1742262;82;21013;-61
2021/12/28 02:48:02;;;;;;;3.70;3.30;;;;;;;-0.57;88.09;95058.11;1740982;82;21029;-61
2021/12/28 02:50:36;;;;;;;4.47;3.60;;;;;;;-0.48;88.26;95055.23;1742352;82;21467;-61
2021/12/28 02:53:03;;;;;;;4.40;4.00;;;;;;;-0.42;88.15;95066.11;1741884;82;21491;-61
2021/12/28 02:55:33;;;;;;;5.33;3.60;;;;;;;-0.41;87.86;95065.25;1742257;82;21538;-61
2021/12/28 02:58:04;;;;;;;4.90;3.73;;;;;;;-0.44;87.51;95069.10;1742417;82;21005;-61
2021/12/28 03:00:42;;;;;;;4.50;4.00;;;;;;;-0.45;87.59;95062.19;1742411;82;21093;-61
2021/12/28 03:03:18;;;;;;;5.53;4.03;;;;;;;-0.49;87.51;95061.68;1742409;82;21006;-61
2021/12/28 03:05:48;;;;;;;5.03;4.27;;;;;;;-0.49;87.58;95063.84;1741988;82;21305;-62
2021/12/28 03:08:18;;;;;;;6.00;5.40;;;;;;;-0.48;87.64;95060.42;1742205;82;21535;-61
2021/12/28 03:10:47;;;;;;;5.57;4.80;;;;;;;-0.46;87.71;95059.99;1742310;82;21009;-61
2021/12/28 03:13:19;;;;;;;6.40;4.60;;;;;;;-0.41;87.73;95063.09;1742318;82;20990;-61
2021/12/28 03:15:46;;;;;;;5.50;4.40;;;;;;;-0.42;87.56;95062.23;1740470;82;21005;-62
2021/12/28 03:18:13;;;;;;;6.00;4.43;;;;;;;-0.44;87.46;95062.63;1742037;82;21030;-61
2021/12/28 03:20:41;;;;;;;7.63;5.03;;;;;;;-0.51;87.32;95059.05;1742379;82;21486;-61
2021/12/28 03:23:08;;;;;;;5.70;4.67;;;;;;;-0.50;87.52;95062.55;1742070;82;20990;-61
2021/12/28 03:25:35;;;;;;;5.67;4.30;;;;;;;-0.53;87.56;95060.78;1742259;82;21057;-61
2021/12/28 03:28:02;;;;;;;5.60;4.03;;;;;;;-0.54;87.60;95062.03;1742334;82;21484;-61
2021/12/28 03:30:29;;;;;;;5.13;3.73;;;;;;;-0.54;87.63;95069.81;1742232;82;20965;-61
2021/12/28 03:32:57;;;;;;;5.67;3.70;;;;;;;-0.55;87.63;95066.78;1742241;82;21056;-61
2021/12/28 03:35:24;;;;;;;5.03;3.67;;;;;;;-0.58;87.58;95070.59;1742327;82;21495;-61
2021/12/28 03:37:51;;;;;;;6.10;4.13;;;;;;;-0.57;87.62;95073.66;1742124;82;21017;-61
2021/12/28 03:40:18;;;;;;;4.40;3.50;;;;;;;-0.60;87.72;95071.02;1742387;82;20997;-61
2021/12/28 03:42:45;;;;;;;4.00;3.10;;;;;;;-0.59;87.74;95077.94;1742046;82;21077;-61
2021/12/28 03:45:12;;;;;;;3.73;3.20;;;;;;;-0.59;87.71;95073.62;1742133;82;21506;-61
2021/12/28 03:47:40;;;;;;;4.50;3.33;;;;;;;-0.56;87.82;95077.98;1742313;82;21507;-61
2021/12/28 03:50:09;;;;;;;4.93;3.87;;;;;;;-0.50;87.87;95084.57;1742355;82;21017;-61
2021/12/28 03:52:36;;;;;;;3.90;3.20;;;;;;;-0.42;88.14;95079.50;1742124;82;21598;-61
2021/12/28 03:55:05;;;;;;;5.33;3.93;;;;;;;-0.41;87.57;95091.17;1742301;82;21045;-61
2021/12/28 03:57:33;;;;;;;3.47;2.20;;;;;;;-0.46;87.27;95087.63;1742290;82;21014;-61
2021/12/28 04:00:00;;;;;;;3.70;2.83;;;;;;;-0.51;87.01;95087.56;1742494;82;21033;-61
2021/12/28 04:02:27;;;;;;;4.20;3.00;;;;;;;-0.60;86.89;95090.45;1742388;82;21001;-61
2021/12/28 04:04:53;;;;;;;4.97;3.53;;;;;;;-0.66;86.94;95095.09;1741935;82;21121;-61
2021/12/28 04:07:21;;;;;;;3.63;2.90;;;;;;;-0.71;86.97;95095.44;1742228;82;21463;-61
2021/12/28 04:12:20;;;;;;;3.53;2.83;;;;;;;-0.70;87.39;95096.77;1742200;82;21009;-61
2021/12/28 04:14:48;;;;;;;4.30;3.30;;;;;;;-0.64;87.46;95096.00;1741721;82;21049;-61
2021/12/28 04:17:14;;;;;;;4.23;3.40;;;;;;;-0.62;87.53;95102.08;1742398;82;21045;-61
2021/12/28 04:19:41;;;;;;;4.40;3.50;;;;;;;-0.57;87.50;95099.56;1742396;82;21021;-62
2021/12/28 04:22:08;;;;;;;5.50;4.00;;;;;;;-0.59;87.42;95098.66;1742188;82;21025;-61
2021/12/28 04:24:35;;;;;;;6.97;5.30;;;;;;;-0.47;88.03;95098.44;1742039;82;21011;-61
2021/12/28 04:27:02;;;;;;;10.33;6.63;;;;;;;-0.42;87.83;95091.16;1742096;82;20986;-61
2021/12/28 04:29:28;;;;;;;8.10;5.53;;;;;;;-0.41;87.67;95093.77;1742103;82;21060;-61
2021/12/28 04:31:55;;;;;;;9.10;5.50;;;;;;;-0.41;87.48;95091.17;1742445;82;21057;-61
2021/12/28 04:34:21;;;;;;;6.97;5.03;;;;;;;-0.39;87.56;95091.20;1742008;82;21017;-61
2021/12/28 04:36:50;;;;;;;4.73;4.00;;;;;;;-0.41;87.26;95092.47;1741905;82;21053;-61
2021/12/28 04:39:17;;;;;;;5.33;3.80;;;;;;;-0.44;87.08;95090.70;1741880;82;21013;-62
2021/12/28 04:41:44;;;;;;;4.63;3.80;;;;;;;-0.39;87.29;95088.19;1742292;82;21523;-61
2021/12/28 04:44:13;;;;;;;4.30;3.43;;;;;;;-0.44;86.99;95089.41;1742106;82;21081;-61
2021/12/28 04:46:40;;;;;;;5.20;3.70;;;;;;;-0.45;87.01;95085.08;1742223;82;20993;-61
2021/12/28 04:49:07;;;;;;;5.67;4.17;;;;;;;-0.51;86.75;95078.48;1742208;82;21576;-61
2021/12/28 04:51:34;;;;;;;4.90;3.97;;;;;;;-0.49;87.34;95085.00;1742180;82;21017;-61
2021/12/28 04:54:06;;;;;;;4.70;3.80;;;;;;;-0.41;87.70;95086.41;1742224;82;21013;-61
2021/12/28 04:56:28;;;;;;;6.90;5.00;;;;;;;-0.37;87.51;95093.41;1741727;82;21009;-61
2021/12/28 04:58:55;;;;;;;6.80;5.03;;;;;;;-0.33;87.46;95093.88;1741965;82;21017;-62
2021/12/28 05:01:22;;;;;;;5.83;4.40;;;;;;;-0.30;87.48;95092.65;1741851;82;21064;-61
2021/12/28 05:03:48;;;;;;;5.27;4.10;;;;;;;-0.32;87.12;95099.09;1742375;82;21033;-61
2021/12/28 05:06:16;;;;;;;5.40;4.13;;;;;;;-0.34;87.05;95097.33;1742535;82;20982;-61
2021/12/28 05:08:42;;;;;;;6.77;5.20;;;;;;;-0.38;86.88;95104.59;1742088;82;21491;-61
2021/12/28 05:11:09;;;;;;;6.10;5.03;;;;;;;-0.35;87.09;95099.05;1742076;82;21025;-61
2021/12/28 05:13:35;;;;;;;5.43;4.00;;;;;;;-0.35;86.94;95100.75;1742395;82;21048;-62
2021/12/28 05:16:02;;;;;;;7.27;5.00;;;;;;;-0.39;86.63;95102.88;1742285;82;21052;-61
2021/12/28 05:18:28;;;;;;;9.43;5.50;;;;;;;-0.42;86.68;95108.02;1742176;82;20974;-61
2021/12/28 05:20:55;;;;;;;9.10;5.60;;;;;;;-0.46;86.62;95108.37;1742204;82;21060;-61
2021/12/28 05:23:21;;;;;;;7.27;5.60;;;;;;;-0.50;86.71;95105.30;1742087;82;20993;-61
2021/12/28 05:25:48;;;;;;;7.03;5.00;;;;;;;-0.50;86.86;95110.05;1742308;82;21502;-61
2021/12/28 05:28:15;;;;;;;4.60;3.53;;;;;;;-0.49;87.00;95114.81;1742130;82;21053;-61
2021/12/28 05:30:42;;;;;;;5.37;3.70;;;;;;;-0.51;86.76;95119.95;1741989;82;21100;-61
2021/12/28 05:33:09;;;;;;;5.20;4.03;;;;;;;-0.57;86.64;95123.75;1742291;82;21498;-61
2021/12/28 05:35:35;;;;;;;4.67;3.50;;;;;;;-0.66;86.66;95121.00;1742405;82;21008;-61
2021/12/28 05:38:02;;;;;;;4.40;3.13;;;;;;;-0.66;86.68;95133.95;1736741;82;21102;-61
2021/12/28 05:40:29;;;;;;;4.03;3.23;;;;;;;-0.71;86.75;95137.75;1736164;83;20997;-61
2021/12/28 05:42:56;;;;;;;5.03;3.40;;;;;;;-0.71;86.85;95133.00;1735595;83;21010;-61
2021/12/28 05:45:22;;;;;;;4.47;3.17;;;;;;;-0.69;86.96;95133.48;1736049;83;21611;-61
2021/12/28 05:47:49;;;;;;;3.23;2.80;;;;;;;-0.67;86.84;95136.11;1736326;83;21499;-61
2021/12/28 05:50:16;;;;;;;4.00;3.20;;;;;;;-0.71;86.80;95137.75;1736005;83;21010;-61
2021/12/28 05:52:42;;;;;;;5.40;2.80;;;;;;;-0.71;86.81;95133.00;1735605;83;21090;-61
2021/12/28 05:55:10;;;;;;;4.40;3.00;;;;;;;-0.77;86.94;95134.20;1735975;83;21026;-61
2021/12/28 05:57:37;;;;;;;4.67;3.40;;;;;;;-0.80;86.98;95128.98;1735573;82;21528;-61
2021/12/28 06:00:08;;;;;;;4.20;2.97;;;;;;;-0.93;87.19;95132.65;1736040;83;21065;-62
2021/12/28 06:02:35;;;;;;;3.67;2.80;;;;;;;-0.86;87.21;95132.31;1736116;82;20982;-61
2021/12/28 06:05:03;;;;;;;2.93;2.20;;;;;;;-0.88;86.99;95136.62;1736109;82;21006;-61
2021/12/28 06:07:30;;;;;;;3.20;2.03;;;;;;;-0.86;87.05;95136.20;1735832;83;21053;-61
2021/12/28 06:09:57;;;;;;;3.23;2.10;;;;;;;-0.93;86.97;95140.42;1736009;83;21491;-62
2021/12/28 06:12:24;;;;;;;3.90;3.30;;;;;;;-0.98;86.83;95145.07;1735676;82;21022;-61
2021/12/28 06:14:52;;;;;;;4.47;3.07;;;;;;;-1.03;87.39;95141.09;1736045;82;21006;-61
2021/12/28 06:17:19;;;;;;;2.80;2.17;;;;;;;-0.96;87.43;95139.47;1735926;83;21010;-61
2021/12/28 06:19:45;;;;;;;5.20;3.20;;;;;;;-0.99;87.09;95147.19;1735946;82;21026;-61
2021/12/28 06:22:12;;;;;;;4.87;3.73;;;;;;;-1.03;87.31;95144.98;1735819;83;20986;-61
2021/12/28 06:24:39;;;;;;;6.07;3.50;;;;;;;-1.02;87.34;95151.89;1735772;83;21022;-61
2021/12/28 06:27:05;;;;;;;18.77;9.80;;;;;;;-1.02;87.16;95148.44;1735705;82;20978;-61
2021/12/28 06:29:32;;;;;;;14.40;6.43;;;;;;;-1.08;87.54;95147.91;1736028;83;21082;-61
2021/12/28 06:31:59;;;;;;;20.00;10.50;;;;;;;-1.08;88.08;95144.02;1735818;82;21052;-61
2021/12/28 06:34:25;;;;;;;7.97;4.50;;;;;;;-0.99;88.06;95151.08;1736064;82;20978;-61
2021/12/28 06:36:52;;;;;;;6.67;4.03;;;;;;;-0.99;87.63;95145.89;1737363;82;21021;-61
2021/12/28 06:39:19;;;;;;;8.83;5.30;;;;;;;-1.04;87.46;95147.53;1741741;82;21073;-61
2021/12/28 06:41:46;;;;;;;8.87;5.67;;;;;;;-1.09;87.40;95146.14;1742330;82;21318;-61
2021/12/28 06:44:12;;;;;;;10.97;7.30;;;;;;;-1.06;87.65;95147.48;1742378;82;21472;-61
2021/12/28 06:46:39;;;;;;;11.40;5.80;;;;;;;-1.07;87.48;95144.89;1742161;82;21479;-61
2021/12/28 06:49:06;;;;;;;8.40;5.17;;;;;;;-1.05;88.24;95142.78;1741986;82;21056;-62
2021/12/28 06:51:33;;;;;;;11.67;7.87;;;;;;;-0.96;88.68;95139.08;1742380;82;21431;-61
2021/12/28 06:53:59;;;;;;;15.10;9.87;;;;;;;-0.84;88.64;95146.17;1742019;82;21048;-62
2021/12/28 06:56:26;;;;;;;7.63;4.47;;;;;;;-0.86;87.94;95149.15;1742507;82;21036;-61
2021/12/28 06:58:52;;;;;;;12.50;8.23;;;;;;;-0.87;87.48;95140.94;1742255;82;21013;-61
2021/12/28 07:01:19;;;;;;;10.37;7.33;;;;;;;-0.86;87.85;95141.38;1742255;82;21022;-62
2021/12/28 07:03:45;;;;;;;8.23;5.83;;;;;;;-0.81;87.84;95144.92;1742268;82;21014;-61
2021/12/28 07:06:13;;;;;;;7.67;4.90;;;;;;;-0.69;88.13;95139.09;1742296;82;21040;-61
2021/12/28 07:08:40;;;;;;;8.23;5.53;;;;;;;-0.61;88.01;95137.92;1742107;82;21001;-61
2021/12/28 07:11:06;;;;;;;5.80;3.80;;;;;;;-0.53;87.99;95140.21;1742005;82;21522;-61
2021/12/28 07:13:33;;;;;;;4.37;3.50;;;;;;;-0.49;87.71;95149.80;1742270;82;21017;-62
2021/12/28 07:16:00;;;;;;;8.60;4.40;;;;;;;-0.49;87.50;95146.77;1742055;82;21045;-61
2021/12/28 07:18:27;;;;;;;7.33;4.80;;;;;;;-0.47;87.60;95154.16;1742377;82;21045;-62
2021/12/28 07:20:53;;;;;;;9.50;6.57;;;;;;;-0.40;87.29;95154.23;1742191;82;21001;-61
2021/12/28 07:23:22;;;;;;;8.73;5.00;;;;;;;-0.42;86.89;95154.23;1742292;82;21044;-61
2021/12/28 07:25:50;;;;;;;7.20;3.67;;;;;;;-0.46;86.93;95158.48;1742513;82;20973;-61
2021/12/28 07:28:17;;;;;;;7.43;4.43;;;;;;;-0.45;86.81;95160.67;1742318;82;21044;-61
2021/12/28 07:30:43;;;;;;;7.83;4.67;;;;;;;-0.50;86.83;95157.13;1742322;82;20997;-61
2021/12/28 07:33:09;;;;;;;13.17;7.23;;;;;;;-0.48;86.98;95157.61;1742555;82;21046;-61
2021/12/28 07:35:36;;;;;;;20.60;11.33;;;;;;;-0.41;87.15;95150.78;1742212;82;20965;-61
2021/12/28 07:38:03;;;;;;;15.23;9.07;;;;;;;-0.41;86.88;95157.27;1742224;82;21072;-61
2021/12/28 07:40:29;;;;;;;16.77;9.87;;;;;;;-0.42;86.99;95163.73;1742359;82;20974;-61
2021/12/28 07:42:56;;;;;;;12.00;8.43;;;;;;;-0.41;87.20;95165.47;1742265;82;21057;-61
2021/12/28 07:45:23;;;;;;;13.57;7.00;;;;;;;-0.36;87.26;95158.20;1742368;82;21495;-61
2021/12/28 07:47:50;;;;;;;14.03;6.83;;;;;;;-0.29;87.62;95156.17;1742369;82;21001;-62
2021/12/28 07:50:18;;;;;;;17.20;8.50;;;;;;;-0.29;87.54;95158.76;1742265;82;21013;-61
2021/12/28 07:52:47;;;;;;;11.33;5.90;;;;;;;-0.33;87.38;95157.38;1741887;82;21531;-62
2021/12/28 07:55:15;;;;;;;24.93;11.63;;;;;;;-0.39;87.61;95163.34;1742402;82;21001;-61
2021/12/28 07:57:43;;;;;;;13.43;8.13;;;;;;;-0.37;87.75;95165.98;1741984;82;21022;-61
2021/12/28 08:00:14;;;;;;;13.80;7.77;;;;;;;-0.31;87.91;95170.81;1742188;82;21014;-61
2021/12/28 08:02:43;;;;;;;22.40;12.97;;;;;;;-0.24;87.98;95158.41;1742413;82;20994;-61
2021/12/28 08:05:12;;;;;;;52.47;28.77;;;;;;;-0.16;88.06;95162.84;1742312;82;21025;-61
2021/12/28 08:07:39;;;;;;;29.77;17.43;;;;;;;-0.15;87.78;95166.77;1742282;82;21061;-61
2021/12/28 08:10:08;;;;;;;164.37;79.23;;;;;;;-0.13;87.71;95176.72;1742186;82;21385;-61
2021/12/28 08:12:34;;;;;;;17.57;8.90;;;;;;;-0.15;87.30;95171.06;1742494;82;21027;-61
2021/12/28 08:15:05;;;;;;;12.80;8.53;;;;;;;-0.20;87.68;95164.53;1742296;82;21021;-61
2021/12/28 08:17:31;;;;;;;198.57;84.67;;;;;;;-0.14;87.87;95175.41;1741679;82;21041;-61
2021/12/28 08:19:58;;;;;;;24.60;12.83;;;;;;;-0.11;87.82;95180.64;1742465;82;21009;-61
2021/12/28 08:22:24;;;;;;;22.53;12.30;;;;;;;-0.08;87.68;95172.47;1742273;82;21016;-62
2021/12/28 08:24:51;;;;;;;26.93;13.50;;;;;;;-0.03;87.81;95169.52;1742232;82;21459;-61
2021/12/28 08:27:18;;;;;;;21.40;11.07;;;;;;;0.15;88.43;95175.84;1742364;82;21017;-61
2021/12/28 08:29:44;;;;;;;22.57;12.30;;;;;;;0.24;88.08;95170.79;1742546;82;20997;-61
2021/12/28 08:32:11;;;;;;;46.33;28.47;;;;;;;0.29;87.91;95167.83;1742278;82;21503;-61
2021/12/28 08:34:37;;;;;;;13.43;9.67;;;;;;;0.37;87.53;95160.16;1742467;82;21048;-61
2021/12/28 08:37:04;;;;;;;17.40;11.80;;;;;;;0.30;86.84;95166.97;1741492;82;21049;-61
2021/12/28 08:39:31;;;;;;;51.90;39.20;;;;;;;0.24;86.88;95173.38;1735768;83;21005;-61
2021/12/28 08:41:58;;;;;;;15.03;10.23;;;;;;;0.16;86.87;95175.87;1735839;83;21015;-61
2021/12/28 08:44:27;;;;;;;27.27;16.60;;;;;;;-0.03;86.97;95177.73;1736054;83;21038;-61
2021/12/28 08:46:53;;;;;;;21.23;13.07;;;;;;;-0.11;87.30;95187.12;1735908;81;21061;-61
2021/12/28 08:49:21;;;;;;;25.03;13.57;;;;;;;-0.17;87.48;95187.05;1736058;82;21053;-61
2021/12/28 08:51:48;;;;;;;18.37;9.20;;;;;;;-0.17;87.77;95187.05;1736004;83;21006;-61
2021/12/28 08:54:14;;;;;;;32.73;16.60;;;;;;;-0.13;87.78;95181.91;1735893;83;21029;-61
2021/12/28 08:56:41;;;;;;;34.40;16.20;;;;;;;-0.10;87.87;95183.27;1736097;81;20986;-61
2021/12/28 08:59:08;;;;;;;22.77;12.27;;;;;;;-0.12;87.83;95183.66;1735886;83;20998;-61
2021/12/28 09:01:34;;;;;;;25.07;16.43;;;;;;;-0.16;88.06;95182.29;1735813;82;21519;-61
2021/12/28 09:04:01;;;;;;;21.57;13.67;;;;;;;-0.25;88.25;95183.03;1736152;83;20967;-61
2021/12/28 09:06:27;;;;;;;18.80;10.27;;;;;;;-0.17;88.36;95174.95;1735801;82;20991;-61
2021/12/28 09:08:54;;;;;;;35.97;17.20;;;;;;;-0.10;88.21;95180.68;1760087;81;21556;-61
2021/12/28 09:11:21;;;;;;;22.03;13.50;;;;;;;-0.10;88.08;95181.08;1736183;83;20990;-62
2021/12/28 09:13:48;;;;;;;22.10;10.63;;;;;;;-0.19;88.16;95179.66;1735834;83;21017;-62
2021/12/28 09:16:15;;;;;;;20.17;12.57;;;;;;;-0.14;88.22;95176.28;1735996;82;20991;-62
2021/12/28 09:18:42;;;;;;;15.23;9.53;;;;;;;-0.16;88.06;95187.48;1736058;82;21001;-61
2021/12/28 09:21:09;;;;;;;16.33;8.63;;;;;;;-0.10;88.31;95184.56;1735713;83;21527;-61
2021/12/28 09:23:38;;;;;;;18.57;9.33;;;;;;;0.02;88.50;95172.62;1735946;83;21483;-61
2021/12/28 09:26:06;;;;;;;16.23;9.17;;;;;;;0.08;87.57;95171.44;1736442;82;21010;-61
2021/12/28 09:28:33;;;;;;;16.93;8.77;;;;;;;0.12;87.33;95174.50;1735867;82;20981;-61
2021/12/28 09:31:00;;;;;;;11.47;6.70;;;;;;;0.20;87.52;95168.59;1736046;82;20978;-61
2021/12/28 09:33:26;;;;;;;10.57;6.63;;;;;;;0.26;87.41;95166.94;1736087;82;21037;-61
2021/12/28 09:35:54;;;;;;;8.20;5.30;;;;;;;0.35;87.50;95164.44;1735825;83;21006;-61
2021/12/28 09:38:22;;;;;;;8.53;5.07;;;;;;;0.38;87.13;95157.59;1740563;82;21065;-62
2021/12/28 09:40:50;;;;;;;7.00;4.87;;;;;;;0.38;86.43;95164.52;1745164;82;21029;-62
2021/12/28 09:43:19;;;;;;;8.13;4.80;;;;;;;0.38;86.26;95160.19;1745142;82;21029;-61
2021/12/28 09:45:46;;;;;;;8.87;5.23;;;;;;;0.41;86.10;95158.92;1745082;82;21013;-61
2021/12/28 09:48:13;;;;;;;7.70;4.70;;;;;;;0.38;85.88;95158.89;1745045;82;21006;-61
2021/12/28 09:50:42;;;;;;;9.33;4.70;;;;;;;0.29;85.99;95161.34;1745073;82;20989;-61
2021/12/28 09:53:13;;;;;;;7.97;5.07;;;;;;;0.34;86.08;95160.98;1745192;82;20989;-61
2021/12/28 09:55:40;;;;;;;7.67;5.00;;;;;;;0.38;85.89;95167.11;1744977;82;21020;-61
2021/12/28 09:58:07;;;;;;;9.33;5.53;;;;;;;0.41;85.82;95166.70;1745040;82;21045;-61
2021/12/28 10:00:34;;;;;;;6.67;4.13;;;;;;;0.40;85.81;95164.08;1744955;82;21073;-61
2021/12/28 10:03:03;;;;;;;8.27;5.40;;;;;;;0.34;85.87;95154.50;1745325;82;21052;-61
2021/12/28 10:05:30;;;;;;;8.90;5.50;;;;;;;0.38;86.09;95143.31;1745184;82;21025;-61
2021/12/28 10:07:59;;;;;;;10.13;6.57;;;;;;;0.37;86.01;95140.25;1745196;82;21004;-61
2021/12/28 10:10:39;;;;;;;12.40;6.63;;;;;;;0.37;85.88;95147.17;1744764;82;21021;-61
2021/12/28 10:13:11;;;;;;;11.63;6.83;;;;;;;0.38;85.99;95149.80;1744567;82;21479;-60
2021/12/28 10:15:40;;;;;;;13.13;7.43;;;;;;;0.38;86.04;95143.75;1744152;82;21016;-61
2021/12/28 10:18:10;;;;;;;15.13;7.37;;;;;;;0.41;86.03;95145.95;1744994;82;21046;-60
2021/12/28 10:20:48;;;;;;;13.70;7.17;;;;;;;0.44;86.08;95142.52;1745494;82;21533;-61
2021/12/28 10:23:19;;;;;;;12.03;6.63;;;;;;;0.39;86.03;95145.05;1745039;82;21036;-61
2021/12/28 10:25:53;;;;;;;11.13;6.90;;;;;;;0.40;86.04;95142.92;1745072;82;21017;-61
2021/12/28 10:28:28;;;;;;;10.77;6.40;;;;;;;0.41;86.18;95145.95;1745108;82;20977;-61
2021/12/28 10:31:02;;;;;;;13.20;6.93;;;;;;;0.40;86.09;95145.91;1744944;82;21044;-62
2021/12/28 10:33:33;;;;;;;14.27;7.17;;;;;;;0.48;86.37;95146.01;1745229;82;21037;-61
2021/12/28 10:36:05;;;;;;;11.23;6.97;;;;;;;0.54;86.10;95133.13;1745129;82;21013;-61
2021/12/28 10:38:36;;;;;;;19.00;8.73;;;;;;;0.59;86.30;95137.95;1740629;82;21045;-61
2021/12/28 10:41:15;;;;;;;14.43;9.10;;;;;;;0.70;86.55;95138.06;1735571;83;21563;-61
2021/12/28 10:43:46;;;;;;;12.80;7.27;;;;;;;0.73;85.96;95141.99;1735990;83;20994;-61
2021/12/28 10:46:20;;;;;;;16.40;10.80;;;;;;;0.72;84.83;95137.66;1735869;82;21015;-61
2021/12/28 10:48:52;;;;;;;;;;;;;;;0.80;85.56;95144.67;1738619;82;21028;-62
2021/12/28 10:51:31;;;;;;;14.33;7.97;;;;;;;0.88;85.08;95134.81;1735997;83;20112;-62
2021/12/28 10:56:36;;;;;;;12.50;7.30;;;;;;;0.95;85.41;95121.03;1736131;83;20985;-61
2021/12/28 10:59:06;;;;;;;11.43;6.97;;;;;;;1.02;85.18;95109.86;1736187;82;21046;-61
2021/12/28 11:01:38;;;;;;;10.00;6.33;;;;;;;0.99;84.70;95116.33;1736115;82;21033;-62
2021/12/28 11:04:11;;;;;;;12.47;6.57;;;;;;;0.97;84.58;95121.50;1736236;83;20966;-61
2021/12/28 11:06:44;;;;;;;;;;;;;;;1.00;84.82;95118.92;1738599;82;21070;-61
2021/12/28 11:09:18;;;;;;;9.77;6.40;;;;;;;0.99;84.62;95106.80;1735322;83;20096;-61
2021/12/28 11:11:47;;;;;;;14.30;7.40;;;;;;;0.92;84.47;95112.78;1736223;83;21504;-61
2021/12/28 11:14:20;;;;;;;12.53;6.43;;;;;;;0.89;84.39;95108.86;1735954;83;21539;-62
2021/12/28 11:17:00;;;;;;;9.55;6.53;;;;;;;0.82;84.70;95113.11;1736244;83;21009;-61
2021/12/28 11:19:33;;;;;;;12.33;6.90;;;;;;;0.79;84.80;95109.62;1736118;81;21569;-61
2021/12/28 11:22:04;;;;;;;12.77;6.73;;;;;;;0.78;85.20;95113.95;1736089;83;21523;-61
2021/12/28 11:24:39;;;;;;;12.17;6.63;;;;;;;0.79;85.11;95116.11;1736008;81;21020;-61
2021/12/28 11:27:07;;;;;;;13.80;7.43;;;;;;;0.77;85.25;95111.33;1736060;82;21523;-61
2021/12/28 11:29:38;;;;;;;12.23;7.57;;;;;;;0.80;85.40;95117.41;1736411;82;21515;-61
2021/12/28 11:32:17;;;;;;;11.37;6.77;;;;;;;0.79;85.49;95111.78;1736318;83;21026;-61
2021/12/28 11:34:45;;;;;;;9.47;6.43;;;;;;;0.81;85.71;95106.62;1735957;82;21058;-61
2021/12/28 11:37:18;;;;;;;11.97;7.23;;;;;;;0.86;85.52;95110.14;1736097;83;21034;-61
2021/12/28 11:39:49;;;;;;;12.60;7.80;;;;;;;0.90;85.49;95113.63;1741302;81;21025;-61
2021/12/28 11:42:18;;;;;;;13.50;7.50;;;;;;;0.94;85.56;95111.08;1736001;83;21480;-61
2021/12/28 11:44:45;;;;;;;14.00;7.73;;;;;;;0.97;85.27;95105.05;1736135;83;21050;-62